Rechercher aéroport 
image banner adimage banner adimage banner ad
image banner ad

9CL0 - Turlock Airpark

Situé à Turlock, United States

ICAO - 9CL0, IATA -

Données fournies par Airmate  

Information générale

Coordonnées: N37°28'15" W120°50'39"
Élévation : 100 feet MSL.
Variation magnétique : 16° East
Voir autres Aéroports à California

Données opérationnelles

Special qualification required
Heure actuelle UTC:
Heure actuelle locale:
METAR: KMOD 262153Z VRB03KT 10SM CLR 32/07 A2983 RMK AO2 SLP101 T03220072
TAF: KMOD 261720Z 2618/2718 32009KT P6SM BKN150 FM270700 34005KT P6SM BKN100
Voir NOTAMs / SUP AIP / TFR affectant cet aéroport [VIEW]
Fréquences de communication: [VIEW]

Pistes:

Identifiant RWYQFULongueur (ft)Largeur (ft)SurfaceLDA (ft)
13207560ASPH
31207560ASPH

Coordonnées de l'aéroport

Adresse: Turlock United States

Vue satellite de 9CL0